Terminal Aerodrome Forecast
Issued by NWS Jacksonville, FL

Home | Current Version | Previous Version | Text Only | Print | Product List | Glossary On
Versions: 1 2 3 4 5 6 7 8 9 10 11 12 13
343
FTUS42 KJAX 050524
TAFGNV
TAF
KGNV 050524Z 0506/0606 18005KT P6SM SCT035
     FM051100 20008KT P6SM BKN035
     FM051700 20010KT P6SM VCSH OVC035
     FM052000 15007KT 5SM -RA OVC025=

USA.gov is the U.S. government's official web portal to all federal, state and local government web resources and services.